sensor_id;sensor_type;location;lat;lon;timestamp;pressure;altitude;pressure_sealevel;temperature;humidity
46955;BME280;32708;51.212;6.788;2023-04-20T00:00:32;101346.84;;;11.85;38.66
46955;BME280;32708;51.212;6.788;2023-04-20T00:02:59;101351.91;;;12.23;38.31
46955;BME280;32708;51.212;6.788;2023-04-20T00:05:25;101353.72;;;12.36;38.51
46955;BME280;32708;51.212;6.788;2023-04-20T00:07:52;101346.13;;;12.90;37.87
46955;BME280;32708;51.212;6.788;2023-04-20T00:10:19;101356.38;;;12.59;38.46
46955;BME280;32708;51.212;6.788;2023-04-20T00:12:45;101356.00;;;13.09;37.92
46955;BME280;32708;51.212;6.788;2023-04-20T00:15:11;101356.94;;;12.87;37.96
46955;BME280;32708;51.212;6.788;2023-04-20T00:17:37;101351.47;;;12.87;37.59
46955;BME280;32708;51.212;6.788;2023-04-20T00:20:06;101342.34;;;12.52;38.58
46955;BME280;32708;51.212;6.788;2023-04-20T00:22:35;101339.84;;;12.73;37.95
46955;BME280;32708;51.212;6.788;2023-04-20T00:25:01;101337.75;;;12.30;38.19
46955;BME280;32708;51.212;6.788;2023-04-20T00:27:27;101315.03;;;12.29;37.92
46955;BME280;32708;51.212;6.788;2023-04-20T00:29:54;101325.25;;;12.46;37.89
46955;BME280;32708;51.212;6.788;2023-04-20T00:32:20;101315.75;;;12.52;37.43
46955;BME280;32708;51.212;6.788;2023-04-20T00:34:47;101307.94;;;13.03;36.87
46955;BME280;32708;51.212;6.788;2023-04-20T00:37:13;101298.28;;;13.48;36.43
46955;BME280;32708;51.212;6.788;2023-04-20T00:39:39;101299.34;;;12.70;36.82
46955;BME280;32708;51.212;6.788;2023-04-20T00:42:09;101303.41;;;12.89;36.32
46955;BME280;32708;51.212;6.788;2023-04-20T00:44:35;101296.78;;;12.73;37.25
46955;BME280;32708;51.212;6.788;2023-04-20T00:47:01;101276.59;;;12.52;37.13
46955;BME280;32708;51.212;6.788;2023-04-20T00:49:29;101285.03;;;12.90;36.50
46955;BME280;32708;51.212;6.788;2023-04-20T00:51:59;101293.03;;;12.52;37.05
46955;BME280;32708;51.212;6.788;2023-04-20T00:54:28;101262.16;;;13.03;36.32
46955;BME280;32708;51.212;6.788;2023-04-20T00:56:55;101278.09;;;12.18;37.58
46955;BME280;32708;51.212;6.788;2023-04-20T00:59:23;101272.78;;;12.87;36.78
46955;BME280;32708;51.212;6.788;2023-04-20T01:01:51;101273.28;;;12.89;36.21
46955;BME280;32708;51.212;6.788;2023-04-20T01:04:18;101274.72;;;12.87;37.08
46955;BME280;32708;51.212;6.788;2023-04-20T01:06:44;101280.47;;;12.51;36.85
46955;BME280;32708;51.212;6.788;2023-04-20T01:09:10;101279.59;;;12.33;37.26
46955;BME280;32708;51.212;6.788;2023-04-20T01:11:38;101263.28;;;12.10;37.78
46955;BME280;32708;51.212;6.788;2023-04-20T01:14:06;101261.50;;;12.89;36.72
46955;BME280;32708;51.212;6.788;2023-04-20T01:16:32;101248.69;;;11.93;37.45
46955;BME280;32708;51.212;6.788;2023-04-20T01:19:02;101258.63;;;12.20;37.15
46955;BME280;32708;51.212;6.788;2023-04-20T01:21:32;101254.09;;;12.72;36.55
46955;BME280;32708;51.212;6.788;2023-04-20T01:23:58;101248.59;;;12.89;36.36
46955;BME280;32708;51.212;6.788;2023-04-20T01:26:25;101239.81;;;12.35;36.85
46955;BME280;32708;51.212;6.788;2023-04-20T01:28:52;101234.72;;;11.94;37.20
46955;BME280;32708;51.212;6.788;2023-04-20T01:31:18;101236.28;;;12.35;37.05
46955;BME280;32708;51.212;6.788;2023-04-20T01:33:44;101237.63;;;12.06;37.48
46955;BME280;32708;51.212;6.788;2023-04-20T01:36:11;101223.09;;;11.89;37.76
46955;BME280;32708;51.212;6.788;2023-04-20T01:38:38;101243.28;;;12.01;37.63
46955;BME280;32708;51.212;6.788;2023-04-20T01:41:08;101243.81;;;11.81;37.45
46955;BME280;32708;51.212;6.788;2023-04-20T01:43:37;101243.69;;;12.34;37.44
46955;BME280;32708;51.212;6.788;2023-04-20T01:46:05;101241.97;;;11.99;37.56
46955;BME280;32708;51.212;6.788;2023-04-20T01:48:32;101245.25;;;12.18;38.34
46955;BME280;32708;51.212;6.788;2023-04-20T01:50:58;101238.84;;;11.83;38.05
46955;BME280;32708;51.212;6.788;2023-04-20T01:53:25;101240.28;;;11.80;38.04
46955;BME280;32708;51.212;6.788;2023-04-20T01:55:51;101239.91;;;12.04;37.29
46955;BME280;32708;51.212;6.788;2023-04-20T01:58:19;101231.31;;;11.89;37.63
46955;BME280;32708;51.212;6.788;2023-04-20T02:00:45;101229.16;;;12.25;37.66
46955;BME280;32708;51.212;6.788;2023-04-20T02:03:11;101218.28;;;11.94;37.68
46955;BME280;32708;51.212;6.788;2023-04-20T02:05:37;101217.63;;;12.54;37.28
46955;BME280;32708;51.212;6.788;2023-04-20T02:08:04;101211.25;;;12.02;37.80
46955;BME280;32708;51.212;6.788;2023-04-20T02:10:31;101206.50;;;12.42;37.89
46955;BME280;32708;51.212;6.788;2023-04-20T02:12:57;101202.38;;;12.05;37.78
46955;BME280;32708;51.212;6.788;2023-04-20T02:15:23;101191.50;;;12.22;37.44
46955;BME280;32708;51.212;6.788;2023-04-20T02:17:50;101191.38;;;11.88;37.98
46955;BME280;32708;51.212;6.788;2023-04-20T02:20:19;101190.16;;;12.11;37.46
46955;BME280;32708;51.212;6.788;2023-04-20T02:22:46;101207.41;;;12.11;37.62
46955;BME280;32708;51.212;6.788;2023-04-20T02:25:13;101191.75;;;11.95;38.14
46955;BME280;32708;51.212;6.788;2023-04-20T02:27:40;101173.00;;;12.71;36.68
46955;BME280;32708;51.212;6.788;2023-04-20T02:30:07;101176.56;;;12.80;37.02
46955;BME280;32708;51.212;6.788;2023-04-20T02:32:34;101181.88;;;12.51;37.61
46955;BME280;32708;51.212;6.788;2023-04-20T02:35:01;101178.81;;;12.87;36.75
46955;BME280;32708;51.212;6.788;2023-04-20T02:37:30;101159.28;;;12.71;37.41
46955;BME280;32708;51.212;6.788;2023-04-20T02:39:56;101182.31;;;12.27;37.57
46955;BME280;32708;51.212;6.788;2023-04-20T02:42:25;101165.41;;;12.77;36.97
46955;BME280;32708;51.212;6.788;2023-04-20T02:44:52;101164.44;;;12.90;37.52
46955;BME280;32708;51.212;6.788;2023-04-20T02:47:18;101165.06;;;13.13;36.73
46955;BME280;32708;51.212;6.788;2023-04-20T02:49:45;101163.50;;;12.60;38.17
46955;BME280;32708;51.212;6.788;2023-04-20T02:52:12;101172.84;;;12.76;37.17
46955;BME280;32708;51.212;6.788;2023-04-20T02:54:38;101162.03;;;12.97;37.39
46955;BME280;32708;51.212;6.788;2023-04-20T02:57:04;101156.38;;;12.42;38.03
46955;BME280;32708;51.212;6.788;2023-04-20T02:59:31;101157.84;;;12.56;38.47
46955;BME280;32708;51.212;6.788;2023-04-20T03:02:04;101154.31;;;12.38;38.63
46955;BME280;32708;51.212;6.788;2023-04-20T03:04:30;101152.19;;;12.35;39.12
46955;BME280;32708;51.212;6.788;2023-04-20T03:07:12;101145.47;;;12.59;38.93
46955;BME280;32708;51.212;6.788;2023-04-20T03:09:39;101137.19;;;12.85;38.53
46955;BME280;32708;51.212;6.788;2023-04-20T03:12:32;101139.00;;;12.55;39.45
46955;BME280;32708;51.212;6.788;2023-04-20T03:15:27;101132.50;;;13.03;38.71
46955;BME280;32708;51.212;6.788;2023-04-20T03:18:14;101138.69;;;12.30;40.11
46955;BME280;32708;51.212;6.788;2023-04-20T03:20:40;101146.72;;;12.70;39.59
46955;BME280;32708;51.212;6.788;2023-04-20T03:23:06;101155.28;;;12.51;40.03
46955;BME280;32708;51.212;6.788;2023-04-20T03:25:34;101149.31;;;12.75;39.82
46955;BME280;32708;51.212;6.788;2023-04-20T03:28:12;101151.75;;;12.51;40.04
46955;BME280;32708;51.212;6.788;2023-04-20T03:30:40;101139.47;;;12.39;40.59
46955;BME280;32708;51.212;6.788;2023-04-20T03:33:12;101141.88;;;12.50;41.01
46955;BME280;32708;51.212;6.788;2023-04-20T03:35:39;101140.28;;;12.31;40.87
46955;BME280;32708;51.212;6.788;2023-04-20T03:38:05;101139.47;;;12.74;41.17
46955;BME280;32708;51.212;6.788;2023-04-20T03:40:32;101131.59;;;12.29;41.71
46955;BME280;32708;51.212;6.788;2023-04-20T03:42:58;101137.16;;;11.98;42.67
46955;BME280;32708;51.212;6.788;2023-04-20T03:45:24;101133.34;;;11.68;43.62
46955;BME280;32708;51.212;6.788;2023-04-20T03:47:50;101130.63;;;12.34;41.86
46955;BME280;32708;51.212;6.788;2023-04-20T03:50:17;101124.75;;;11.92;42.79
46955;BME280;32708;51.212;6.788;2023-04-20T03:52:43;101118.34;;;12.05;42.92
46955;BME280;32708;51.212;6.788;2023-04-20T03:55:10;101120.97;;;12.36;42.82
46955;BME280;32708;51.212;6.788;2023-04-20T03:57:40;101090.66;;;12.42;42.39
46955;BME280;32708;51.212;6.788;2023-04-20T04:00:07;101121.91;;;12.49;42.52
46955;BME280;32708;51.212;6.788;2023-04-20T04:02:53;101111.41;;;11.99;43.09
46955;BME280;32708;51.212;6.788;2023-04-20T04:05:24;101107.28;;;12.36;43.44
46955;BME280;32708;51.212;6.788;2023-04-20T04:07:52;101115.50;;;12.36;42.90
46955;BME280;32708;51.212;6.788;2023-04-20T04:10:18;101107.56;;;12.78;42.39
46955;BME280;32708;51.212;6.788;2023-04-20T04:12:45;101111.59;;;12.81;42.65
46955;BME280;32708;51.212;6.788;2023-04-20T04:15:11;101115.16;;;12.73;43.07
46955;BME280;32708;51.212;6.788;2023-04-20T04:17:47;101115.78;;;12.09;44.28
46955;BME280;32708;51.212;6.788;2023-04-20T04:20:14;101113.38;;;12.42;44.00
46955;BME280;32708;51.212;6.788;2023-04-20T04:22:41;101108.22;;;12.66;43.39
46955;BME280;32708;51.212;6.788;2023-04-20T04:25:26;101104.84;;;12.09;44.22
46955;BME280;32708;51.212;6.788;2023-04-20T04:27:52;101092.13;;;12.65;43.72
46955;BME280;32708;51.212;6.788;2023-04-20T04:30:19;101082.94;;;12.44;43.66
46955;BME280;32708;51.212;6.788;2023-04-20T04:32:46;101093.44;;;11.58;46.38
46955;BME280;32708;51.212;6.788;2023-04-20T04:35:15;101105.75;;;11.47;47.13
46955;BME280;32708;51.212;6.788;2023-04-20T04:37:41;101106.91;;;12.21;45.76
46955;BME280;32708;51.212;6.788;2023-04-20T04:40:08;101096.63;;;12.00;46.80
46955;BME280;32708;51.212;6.788;2023-04-20T04:42:36;101111.31;;;11.65;47.88
46955;BME280;32708;51.212;6.788;2023-04-20T04:45:04;101100.03;;;12.15;47.32
46955;BME280;32708;51.212;6.788;2023-04-20T04:47:34;101096.75;;;11.87;48.39
46955;BME280;32708;51.212;6.788;2023-04-20T04:50:03;101096.44;;;11.48;50.42
46955;BME280;32708;51.212;6.788;2023-04-20T04:52:32;101095.50;;;12.53;49.35
46955;BME280;32708;51.212;6.788;2023-04-20T04:54:58;101107.53;;;11.92;51.02
46955;BME280;32708;51.212;6.788;2023-04-20T04:57:25;101112.38;;;11.95;51.36
46955;BME280;32708;51.212;6.788;2023-04-20T04:59:51;101107.88;;;11.50;55.19
46955;BME280;32708;51.212;6.788;2023-04-20T05:02:18;101106.41;;;11.93;55.26
46955;BME280;32708;51.212;6.788;2023-04-20T05:04:44;101102.66;;;11.80;56.60
46955;BME280;32708;51.212;6.788;2023-04-20T05:07:11;101112.84;;;11.48;58.70
46955;BME280;32708;51.212;6.788;2023-04-20T05:09:39;101114.66;;;12.01;57.99
46955;BME280;32708;51.212;6.788;2023-04-20T05:12:06;101118.19;;;11.62;60.76
46955;BME280;32708;51.212;6.788;2023-04-20T05:14:33;101114.66;;;12.19;60.58
46955;BME280;32708;51.212;6.788;2023-04-20T05:17:00;101110.78;;;12.02;62.09
46955;BME280;32708;51.212;6.788;2023-04-20T05:19:27;101118.53;;;11.69;63.51
46955;BME280;32708;51.212;6.788;2023-04-20T05:21:53;101112.06;;;11.96;64.20
46955;BME280;32708;51.212;6.788;2023-04-20T05:24:19;101119.09;;;11.40;66.56
46955;BME280;32708;51.212;6.788;2023-04-20T05:26:46;101124.28;;;11.99;65.27
46955;BME280;32708;51.212;6.788;2023-04-20T05:29:14;101127.16;;;11.85;66.81
46955;BME280;32708;51.212;6.788;2023-04-20T05:31:40;101126.13;;;11.33;68.95
46955;BME280;32708;51.212;6.788;2023-04-20T05:34:06;101130.94;;;11.36;71.36
46955;BME280;32708;51.212;6.788;2023-04-20T05:36:32;101130.03;;;11.40;70.38
46955;BME280;32708;51.212;6.788;2023-04-20T05:38:59;101112.72;;;11.62;69.67
46955;BME280;32708;51.212;6.788;2023-04-20T05:41:25;101105.31;;;11.54;69.96
46955;BME280;32708;51.212;6.788;2023-04-20T05:43:54;101124.13;;;11.16;73.40
46955;BME280;32708;51.212;6.788;2023-04-20T05:46:22;101118.53;;;10.98;74.68
46955;BME280;32708;51.212;6.788;2023-04-20T05:48:48;101136.69;;;11.25;74.80
46955;BME280;32708;51.212;6.788;2023-04-20T05:51:14;101129.25;;;11.17;74.85
46955;BME280;32708;51.212;6.788;2023-04-20T05:53:41;101120.78;;;11.27;74.68
46955;BME280;32708;51.212;6.788;2023-04-20T05:56:07;101131.03;;;10.91;76.93
46955;BME280;32708;51.212;6.788;2023-04-20T05:58:35;101132.63;;;11.45;75.14
46955;BME280;32708;51.212;6.788;2023-04-20T06:01:03;101132.88;;;11.66;73.23
46955;BME280;32708;51.212;6.788;2023-04-20T06:03:29;101138.84;;;11.77;73.13
46955;BME280;32708;51.212;6.788;2023-04-20T06:05:56;101126.41;;;11.62;73.42
46955;BME280;32708;51.212;6.788;2023-04-20T06:08:22;101119.03;;;11.32;75.17
46955;BME280;32708;51.212;6.788;2023-04-20T06:10:53;101122.34;;;11.91;72.45
46955;BME280;32708;51.212;6.788;2023-04-20T06:13:23;101116.47;;;12.58;70.27
46955;BME280;32708;51.212;6.788;2023-04-20T06:15:49;101125.94;;;12.17;69.72
46955;BME280;32708;51.212;6.788;2023-04-20T06:18:17;101116.78;;;12.30;69.92
46955;BME280;32708;51.212;6.788;2023-04-20T06:20:44;101120.66;;;12.29;69.68
46955;BME280;32708;51.212;6.788;2023-04-20T06:23:10;101113.88;;;12.44;69.32
46955;BME280;32708;51.212;6.788;2023-04-20T06:25:37;101106.13;;;12.20;69.68
46955;BME280;32708;51.212;6.788;2023-04-20T06:28:04;101117.47;;;11.79;72.28
46955;BME280;32708;51.212;6.788;2023-04-20T06:30:32;101117.28;;;11.36;74.16
46955;BME280;32708;51.212;6.788;2023-04-20T06:33:00;101122.75;;;11.36;74.21
46955;BME280;32708;51.212;6.788;2023-04-20T06:35:26;101117.03;;;11.15;75.56
46955;BME280;32708;51.212;6.788;2023-04-20T06:37:52;101121.59;;;11.28;75.93
46955;BME280;32708;51.212;6.788;2023-04-20T06:40:20;101113.69;;;11.57;74.01
46955;BME280;32708;51.212;6.788;2023-04-20T06:42:46;101109.72;;;11.33;75.49
46955;BME280;32708;51.212;6.788;2023-04-20T06:45:12;101117.16;;;11.41;75.95
46955;BME280;32708;51.212;6.788;2023-04-20T06:47:38;101100.97;;;11.53;75.02
46955;BME280;32708;51.212;6.788;2023-04-20T06:50:06;101114.50;;;11.27;76.80
46955;BME280;32708;51.212;6.788;2023-04-20T06:52:37;101122.69;;;11.18;78.01
46955;BME280;32708;51.212;6.788;2023-04-20T06:55:03;101115.38;;;10.83;80.93
46955;BME280;32708;51.212;6.788;2023-04-20T06:57:30;101139.66;;;10.62;85.13
46955;BME280;32708;51.212;6.788;2023-04-20T06:59:56;101146.13;;;10.88;83.87
46955;BME280;32708;51.212;6.788;2023-04-20T07:02:24;101134.50;;;10.83;85.89
46955;BME280;32708;51.212;6.788;2023-04-20T07:04:50;101129.69;;;11.42;82.61
46955;BME280;32708;51.212;6.788;2023-04-20T07:07:16;101119.66;;;11.28;83.89
46955;BME280;32708;51.212;6.788;2023-04-20T07:09:42;101130.28;;;10.54;88.40
46955;BME280;32708;51.212;6.788;2023-04-20T07:12:08;101137.31;;;10.69;89.78
46955;BME280;32708;51.212;6.788;2023-04-20T07:14:36;101173.34;;;10.07;92.10
46955;BME280;32708;51.212;6.788;2023-04-20T07:17:03;101145.09;;;10.39;92.55
46955;BME280;32708;51.212;6.788;2023-04-20T07:19:29;101122.56;;;10.20;91.60
46955;BME280;32708;51.212;6.788;2023-04-20T07:21:55;101141.00;;;10.01;93.25
46955;BME280;32708;51.212;6.788;2023-04-20T07:24:21;101136.22;;;10.56;93.81
46955;BME280;32708;51.212;6.788;2023-04-20T07:26:47;101136.41;;;10.37;94.45
46955;BME280;32708;51.212;6.788;2023-04-20T07:29:13;101124.91;;;10.13;96.30
46955;BME280;32708;51.212;6.788;2023-04-20T07:31:40;101124.13;;;10.71;93.40
46955;BME280;32708;51.212;6.788;2023-04-20T07:34:06;101131.78;;;10.83;92.71
46955;BME280;32708;51.212;6.788;2023-04-20T07:36:32;101128.56;;;11.43;89.51
46955;BME280;32708;51.212;6.788;2023-04-20T07:38:59;101126.81;;;10.62;93.60
46955;BME280;32708;51.212;6.788;2023-04-20T07:41:25;101128.66;;;10.53;94.20
46955;BME280;32708;51.212;6.788;2023-04-20T07:43:51;101145.59;;;10.41;93.43
46955;BME280;32708;51.212;6.788;2023-04-20T07:46:21;101123.03;;;10.72;92.77
46955;BME280;32708;51.212;6.788;2023-04-20T07:48:48;101134.56;;;10.46;94.84
46955;BME280;32708;51.212;6.788;2023-04-20T07:51:14;101128.56;;;10.81;92.57
46955;BME280;32708;51.212;6.788;2023-04-20T07:53:41;101128.91;;;11.10;92.70
46955;BME280;32708;51.212;6.788;2023-04-20T07:56:07;101125.31;;;11.01;91.69
46955;BME280;32708;51.212;6.788;2023-04-20T07:58:33;101136.56;;;10.77;93.38
46955;BME280;32708;51.212;6.788;2023-04-20T08:01:03;101136.53;;;11.22;90.57
46955;BME280;32708;51.212;6.788;2023-04-20T08:03:29;101124.28;;;11.19;88.71
46955;BME280;32708;51.212;6.788;2023-04-20T08:05:55;101125.41;;;10.65;91.56
46955;BME280;32708;51.212;6.788;2023-04-20T08:08:22;101118.59;;;11.07;90.44
46955;BME280;32708;51.212;6.788;2023-04-20T08:10:48;101114.06;;;11.34;87.67
46955;BME280;32708;51.212;6.788;2023-04-20T08:13:14;101112.94;;;11.03;89.69
46955;BME280;32708;51.212;6.788;2023-04-20T08:15:40;101114.78;;;11.56;88.45
46955;BME280;32708;51.212;6.788;2023-04-20T08:18:06;101119.22;;;11.35;88.55
46955;BME280;32708;51.212;6.788;2023-04-20T08:20:33;101110.81;;;11.71;86.83
46955;BME280;32708;51.212;6.788;2023-04-20T08:22:59;101101.19;;;11.34;88.92
46955;BME280;32708;51.212;6.788;2023-04-20T08:25:25;101100.22;;;11.78;86.36
46955;BME280;32708;51.212;6.788;2023-04-20T08:27:51;101103.53;;;11.98;85.91
46955;BME280;32708;51.212;6.788;2023-04-20T08:30:17;101100.75;;;11.41;86.30
46955;BME280;32708;51.212;6.788;2023-04-20T08:32:43;101099.25;;;11.26;87.26
46955;BME280;32708;51.212;6.788;2023-04-20T08:35:10;101097.81;;;10.97;89.74
46955;BME280;32708;51.212;6.788;2023-04-20T08:37:36;101093.31;;;11.33;87.94
46955;BME280;32708;51.212;6.788;2023-04-20T08:40:05;101104.09;;;10.53;92.52
46955;BME280;32708;51.212;6.788;2023-04-20T08:42:31;101099.25;;;11.74;86.94
46955;BME280;32708;51.212;6.788;2023-04-20T08:44:58;101089.34;;;11.96;84.88
46955;BME280;32708;51.212;6.788;2023-04-20T08:47:26;101093.78;;;11.74;87.06
46955;BME280;32708;51.212;6.788;2023-04-20T08:49:53;101091.94;;;11.52;89.01
46955;BME280;32708;51.212;6.788;2023-04-20T08:52:20;101098.88;;;11.19;89.33
46955;BME280;32708;51.212;6.788;2023-04-20T08:54:46;101109.78;;;11.10;91.67
46955;BME280;32708;51.212;6.788;2023-04-20T08:57:12;101102.28;;;11.64;90.13
46955;BME280;32708;51.212;6.788;2023-04-20T08:59:39;101107.69;;;10.85;94.38
46955;BME280;32708;51.212;6.788;2023-04-20T09:02:12;101103.63;;;11.05;95.43
46955;BME280;32708;51.212;6.788;2023-04-20T09:04:40;101104.50;;;10.91;97.91
46955;BME280;32708;51.212;6.788;2023-04-20T09:07:17;101116.94;;;10.53;98.22
46955;BME280;32708;51.212;6.788;2023-04-20T09:09:55;101114.06;;;11.34;98.45
46955;BME280;32708;51.212;6.788;2023-04-20T09:12:21;101103.78;;;10.77;100.00
46955;BME280;32708;51.212;6.788;2023-04-20T09:14:48;101127.81;;;10.89;100.00
46955;BME280;32708;51.212;6.788;2023-04-20T09:17:15;101123.69;;;11.00;100.00
46955;BME280;32708;51.212;6.788;2023-04-20T09:19:44;101123.91;;;11.12;100.00
46955;BME280;32708;51.212;6.788;2023-04-20T09:22:11;101128.91;;;11.50;100.00
46955;BME280;32708;51.212;6.788;2023-04-20T09:24:39;101116.97;;;11.06;100.00
46955;BME280;32708;51.212;6.788;2023-04-20T09:27:17;101104.31;;;11.98;100.00
46955;BME280;32708;51.212;6.788;2023-04-20T09:29:59;101100.50;;;12.51;98.06
46955;BME280;32708;51.212;6.788;2023-04-20T09:32:27;101103.03;;;12.91;96.58
46955;BME280;32708;51.212;6.788;2023-04-20T09:34:54;101095.84;;;13.63;91.59
46955;BME280;32708;51.212;6.788;2023-04-20T09:37:21;101096.03;;;13.11;92.74
46955;BME280;32708;51.212;6.788;2023-04-20T09:39:50;101098.53;;;13.71;89.97
46955;BME280;32708;51.212;6.788;2023-04-20T09:42:19;101076.97;;;14.32;83.73
46955;BME280;32708;51.212;6.788;2023-04-20T09:44:48;101077.31;;;14.31;83.06
46955;BME280;32708;51.212;6.788;2023-04-20T09:47:17;101070.09;;;15.50;81.47
46955;BME280;32708;51.212;6.788;2023-04-20T09:49:46;101070.00;;;14.35;81.37
46955;BME280;32708;51.212;6.788;2023-04-20T09:52:16;101057.38;;;14.22;80.91
46955;BME280;32708;51.212;6.788;2023-04-20T09:54:44;101058.38;;;15.17;79.65
46955;BME280;32708;51.212;6.788;2023-04-20T09:57:13;101062.47;;;14.86;80.38
46955;BME280;32708;51.212;6.788;2023-04-20T09:59:46;101052.47;;;14.81;74.04
46955;BME280;32708;51.212;6.788;2023-04-20T10:02:13;101043.66;;;14.88;74.49
46955;BME280;32708;51.212;6.788;2023-04-20T10:05:00;101036.34;;;14.92;75.30
46955;BME280;32708;51.212;6.788;2023-04-20T10:07:31;101045.31;;;13.64;75.89
46955;BME280;32708;51.212;6.788;2023-04-20T10:10:15;101044.97;;;14.16;76.39
46955;BME280;32708;51.212;6.788;2023-04-20T10:12:51;101032.78;;;14.25;75.06
46955;BME280;32708;51.212;6.788;2023-04-20T10:15:18;101038.06;;;13.68;75.00
46955;BME280;32708;51.212;6.788;2023-04-20T10:17:47;101031.75;;;14.96;72.90
46955;BME280;32708;51.212;6.788;2023-04-20T10:20:23;101028.47;;;14.57;73.62
46955;BME280;32708;51.212;6.788;2023-04-20T10:22:52;101024.91;;;13.53;73.06
46955;BME280;32708;51.212;6.788;2023-04-20T10:25:24;101037.78;;;13.31;73.68
46955;BME280;32708;51.212;6.788;2023-04-20T10:28:02;101028.94;;;13.55;75.42
46955;BME280;32708;51.212;6.788;2023-04-20T10:30:36;101041.97;;;13.29;74.51
46955;BME280;32708;51.212;6.788;2023-04-20T10:33:09;101031.53;;;13.22;75.01
46955;BME280;32708;51.212;6.788;2023-04-20T10:38:36;101010.75;;;14.67;70.03
46955;BME280;32708;51.212;6.788;2023-04-20T10:41:12;101005.66;;;14.24;69.18
46955;BME280;32708;51.212;6.788;2023-04-20T10:43:39;101002.38;;;14.10;69.49
46955;BME280;32708;51.212;6.788;2023-04-20T10:46:20;101028.34;;;13.41;71.08
46955;BME280;32708;51.212;6.788;2023-04-20T10:51:20;101019.25;;;13.99;72.22
46955;BME280;32708;51.212;6.788;2023-04-20T10:54:00;101014.41;;;14.71;69.61
46955;BME280;32708;51.212;6.788;2023-04-20T10:56:46;101023.75;;;14.46;70.43
46955;BME280;32708;51.212;6.788;2023-04-20T10:59:16;101008.22;;;14.08;71.20
46955;BME280;32708;51.212;6.788;2023-04-20T11:01:44;101016.25;;;13.92;72.28
46955;BME280;32708;51.212;6.788;2023-04-20T11:04:12;101011.38;;;15.09;69.25
46955;BME280;32708;51.212;6.788;2023-04-20T11:06:40;100999.47;;;15.05;66.92
46955;BME280;32708;51.212;6.788;2023-04-20T11:09:22;100985.91;;;15.74;64.65
46955;BME280;32708;51.212;6.788;2023-04-20T11:12:09;100977.56;;;15.33;63.65
46955;BME280;32708;51.212;6.788;2023-04-20T11:14:52;100974.50;;;15.10;62.16
46955;BME280;32708;51.212;6.788;2023-04-20T11:17:19;100974.00;;;15.45;61.82
46955;BME280;32708;51.212;6.788;2023-04-20T11:19:45;100977.41;;;14.69;62.80
46955;BME280;32708;51.212;6.788;2023-04-20T11:22:21;100962.00;;;15.01;61.67
46955;BME280;32708;51.212;6.788;2023-04-20T11:24:48;100961.28;;;14.34;63.13
46955;BME280;32708;51.212;6.788;2023-04-20T11:27:19;100963.19;;;14.54;63.26
46955;BME280;32708;51.212;6.788;2023-04-20T11:29:56;100966.72;;;13.68;65.92
46955;BME280;32708;51.212;6.788;2023-04-20T11:32:25;100966.16;;;13.95;67.16
46955;BME280;32708;51.212;6.788;2023-04-20T11:35:07;100980.88;;;13.49;67.45
46955;BME280;32708;51.212;6.788;2023-04-20T11:37:46;100973.00;;;13.09;68.98
46955;BME280;32708;51.212;6.788;2023-04-20T11:40:13;100960.41;;;13.67;67.38
46955;BME280;32708;51.212;6.788;2023-04-20T11:42:39;100972.19;;;13.68;67.37
46955;BME280;32708;51.212;6.788;2023-04-20T11:45:06;100998.28;;;13.24;69.78
46955;BME280;32708;51.212;6.788;2023-04-20T11:47:33;100977.81;;;13.71;70.93
46955;BME280;32708;51.212;6.788;2023-04-20T11:49:59;100987.59;;;13.60;71.52
46955;BME280;32708;51.212;6.788;2023-04-20T11:52:26;100977.41;;;14.02;70.76
46955;BME280;32708;51.212;6.788;2023-04-20T11:54:52;100974.59;;;14.44;67.81
46955;BME280;32708;51.212;6.788;2023-04-20T11:57:18;100963.72;;;15.05;64.56
46955;BME280;32708;51.212;6.788;2023-04-20T11:59:46;100967.34;;;14.85;65.25
46955;BME280;32708;51.212;6.788;2023-04-20T12:02:14;100980.78;;;13.87;66.38
46955;BME280;32708;51.212;6.788;2023-04-20T12:04:40;100970.00;;;14.36;65.59
46955;BME280;32708;51.212;6.788;2023-04-20T12:07:07;100968.38;;;14.35;64.57
46955;BME280;32708;51.212;6.788;2023-04-20T12:09:33;100964.69;;;14.64;63.67
46955;BME280;32708;51.212;6.788;2023-04-20T12:12:04;100954.78;;;15.85;58.70
46955;BME280;32708;51.212;6.788;2023-04-20T12:14:31;100956.63;;;15.17;59.23
46955;BME280;32708;51.212;6.788;2023-04-20T12:17:03;100954.47;;;14.19;62.23
46955;BME280;32708;51.212;6.788;2023-04-20T12:19:30;100966.41;;;14.56;61.49
46955;BME280;32708;51.212;6.788;2023-04-20T12:21:56;100954.19;;;14.33;62.38
46955;BME280;32708;51.212;6.788;2023-04-20T12:24:23;100940.81;;;15.01;60.23
46955;BME280;32708;51.212;6.788;2023-04-20T12:26:49;100956.44;;;15.50;59.89
46955;BME280;32708;51.212;6.788;2023-04-20T12:29:15;100951.53;;;14.24;60.94
46955;BME280;32708;51.212;6.788;2023-04-20T12:31:41;100952.75;;;14.15;61.44
46955;BME280;32708;51.212;6.788;2023-04-20T12:34:07;100937.34;;;15.04;58.76
46955;BME280;32708;51.212;6.788;2023-04-20T12:36:33;100947.78;;;14.99;57.40
46955;BME280;32708;51.212;6.788;2023-04-20T12:39:00;100944.78;;;14.34;57.32
46955;BME280;32708;51.212;6.788;2023-04-20T12:41:27;100935.09;;;14.94;54.65
46955;BME280;32708;51.212;6.788;2023-04-20T12:43:53;100955.16;;;14.16;55.69
46955;BME280;32708;51.212;6.788;2023-04-20T12:46:19;100947.38;;;15.49;52.38
46955;BME280;32708;51.212;6.788;2023-04-20T12:48:45;100946.28;;;14.89;52.23
46955;BME280;32708;51.212;6.788;2023-04-20T12:51:13;100947.50;;;15.53;51.23
46955;BME280;32708;51.212;6.788;2023-04-20T12:53:40;100935.28;;;15.90;49.25
46955;BME280;32708;51.212;6.788;2023-04-20T12:56:06;100933.03;;;15.80;49.12
46955;BME280;32708;51.212;6.788;2023-04-20T12:58:33;100929.31;;;15.88;49.01
46955;BME280;32708;51.212;6.788;2023-04-20T13:00:59;100926.28;;;16.21;48.06